• Join FlightAware (Why Join?)
  • Login
  • US Flag 
03:37PM EST


 

Airport Tracker/Info


-or-


 

Live Flight TrackerFlight Track Log ✈ LYM375 ✈ 09-May-2013 ✈ KGJT - KBJC

Flight Track Log - Related Links

Times and Time Zones

All times are in EDT time to prevent confusion due to time zone crossing. See the LYM375 flight status page for this flight to view local times or setup timezone preferences in your user account.

Time Position Orientation Groundspeed Altitude Reporting Facility
EDT Latitude Longitude Course Direction KTS MPH feet Rate Location/Type
10:27AM 39.0508 -108.4325 112° Southeast 193 222 9,300  Level Denver Center
10:28AM 39.1014 -108.4203 11° North 184 212 11,300 1,680 Climbing Denver Center
10:29AM 39.1369 -108.3903 33° Northeast 190 219 12,800 1,500 Climbing Denver Center
10:30AM 39.1925 -108.3569 25° Northeast 183 211 14,400 1,320 Climbing Denver Center
10:31AM 39.1291 -108.5960 60° Northeast  Level FlightAware Approximate
10:31AM 39.2411 -108.3278 25° Northeast 182 209 15,600  Level Denver Center
10:32AM 39.2850 -108.2936 31° Northeast 186 214 16,800 1,020 Climbing Denver Center
10:33AM 39.3169 -108.2322 56° Northeast 190 219 17,800 900 Climbing Denver Center
10:34AM 39.3375 -108.1714 66° East 187 215 18,700 780 Climbing Denver Center
10:35AM 39.3669 -108.1092 59° Northeast 188 216 19,700 780 Climbing Denver Center
10:36AM 39.4058 -108.0422 53° Northeast 189 217 20,600 540 Climbing Denver Center
10:37AM 39.4233 -107.9894 67° East 196 226 20,900 180 Climbing Denver Center
10:38AM 39.4536 -107.9114 63° Northeast 216 249 21,000 60 Climbing Denver Center
10:39AM 39.4864 -107.8278 63° Northeast 230 265 21,100 -60 Climbing Denver Center
10:40AM 39.5172 -107.7522 62° Northeast 241 277 20,900  Descending Denver Center
10:42AM 39.5503 -107.6603 65° Northeast 249 287 21,100  Climbing Denver Center
10:43AM 39.5856 -107.5564 66° East 249 287 21,000 -120 Descending Denver Center
10:44AM 39.6114 -107.4764 67° East 251 289 20,900 -60 Descending Denver Center
10:45AM 39.6497 -107.3867 61° Northeast 253 291 20,900  Level Denver Center
10:46AM 39.6747 -107.3036 69° East 258 297 21,000  Climbing Denver Center
10:47AM 39.7144 -107.2286 55° Northeast 262 302 21,000 -60 Level Denver Center
10:48AM 39.7586 -107.1431 56° Northeast 259 298 20,900 -60 Descending Denver Center
10:49AM 39.7969 -107.0628 58° Northeast 260 299 20,900  Level Denver Center
10:50AM 39.8236 -106.9761 68° East 256 295 20,900  Level Denver Center
10:51AM 39.8508 -106.8897 68° East 257 296 20,900  Level Denver Center
10:52AM 39.8792 -106.8033 67° East 257 296 20,900  Level Denver Center
10:53AM 39.9122 -106.7194 63° Northeast 259 298 20,900  Level Denver Center
10:54AM 39.9458 -106.6156 67° East 259 298 21,000  Climbing Denver Center
10:55AM 39.9706 -106.5342 68° East 256 295 21,000  Level Denver Center
10:56AM 40.0053 -106.4444 63° Northeast 258 297 21,000  Level Denver Center
10:57AM 40.0614 -106.3872 38° Northeast 261 300 21,000 -60 Level Denver Center
10:58AM 40.1236 -106.3369 32° Northeast 264 304 20,900  Descending Denver Center
10:59AM 40.1792 -106.2742 41° Northeast 263 303 21,000  Climbing Denver Center
11:00AM 40.2375 -106.1931 47° Northeast 256 295 21,000  Level Denver Center
11:01AM 40.2942 -106.1339 39° Northeast 258 297 21,000 -60 Level Denver Center
11:02AM 40.3589 -106.0881 28° Northeast 263 303 20,900  Descending Denver Center
11:03AM 40.4131 -106.0261 41° Northeast 258 297 21,000  Climbing Denver Center
11:04AM 40.4619 -105.9567 47° Northeast 257 296 20,900  Descending Denver Center
11:05AM 40.5114 -105.8858 47° Northeast 263 303 21,100 60 Climbing Denver Center
11:06AM 40.5361 -105.8036 68° East 269 310 21,100 -780 Level Denver Center
11:07AM 40.5219 -105.7106 101° East 264 304 19,600 -1,620 Descending Denver Center
11:08AM 40.4936 -105.5983 108° East 278 320 17,800 -1,320 Descending Denver Center
11:09AM 40.4389 -105.5206 133° Southeast 283 326 16,900 -1,080 Descending Denver Center
11:10AM 40.3814 -105.4414 134° Southeast 288 331 15,600 -1,260 Descending Denver Center
11:11AM 40.3178 -105.3742 141° Southeast 272 313 14,300 -1,500 Descending Denver Center
11:13AM 40.2639 -105.3100 138° Southeast 264 304 12,600 -1,680 Descending Denver Center
11:14AM 40.2125 -105.2431 135° Southeast 262 302 10,900 -1,380 Descending Denver Center
11:15AM 40.1547 -105.1742 138° Southeast 262 302 9,800 -1,260 Descending Denver Center
11:16AM 40.1036 -105.1144 138° Southeast 250 288 8,300 -960 Descending Denver Center
11:17AM 40.0469 -105.0658 147° Southeast 229 264 7,900 -360 Descending Denver Center
11:18AM 39.9897 -105.0231 150° Southeast 235 270 7,600 -360 Descending Denver Center
11:19AM 39.9211 -104.9839 156° South 223 257 7,200 -420 Descending Denver Center
11:20AM 39.8786 -105.0208 214° Southwest 172 198 6,800 -480 Descending Denver Center
11:21AM 39.8825 -105.0672 276° West 140 161 6,200 -540 Descending Denver Center
11:22AM 39.9072 -105.1136 305° West 127 146 5,600 -600 Descending Denver Center
11:24AM 39.9088 -105.1172 198° South  Level Estimated
11:31AM 39.9088 -105.1172 303° West  Level Estimated
11:32AM 39.9088 -105.1172 303° West  Level Estimated